RYR947 LOWW-EPKK
Flight info
| Callsign | RYR947 |
|---|---|
| Flight time | 0h 41m |
| Altitude | 27000 |
| Route | LEDVA3C LEDVA NETIR NETIR4G |
| Aircraft | A320/M-SDE3FGHIRWY/LB1 |
Departure
| Time | 2026-04-23 19:18 |
|---|---|
| Airport | Vienna International Airport (LOWW) |
Arrival
| Time | 2026-04-23 19:59 |
|---|---|
| Airport | Kraków John Paul II International Airport (EPKK) |
| Time | Latitude | Longitude | Altitude | Speed | Heading |
|---|---|---|---|---|---|
| 2026-04-23 18:52 | 48.11938 | 16.55800 | 619 ft | 0 kts | 296° |
| 2026-04-23 19:07 | 48.11935 | 16.55810 | 623 ft | 4 kts | 295° |
| 2026-04-23 19:08 | 48.11924 | 16.55846 | 617 ft | 4 kts | 288° |
| 2026-04-23 19:08 | 48.11918 | 16.55885 | 623 ft | 4 kts | 272° |
| 2026-04-23 19:08 | 48.11923 | 16.55920 | 619 ft | 4 kts | 216° |
| 2026-04-23 19:08 | 48.11926 | 16.55924 | 617 ft | 0 kts | 206° |
| 2026-04-23 19:13 | 48.11907 | 16.55909 | 614 ft | 7 kts | 207° |
| 2026-04-23 19:13 | 48.11848 | 16.55864 | 611 ft | 11 kts | 206° |
| 2026-04-23 19:13 | 48.11767 | 16.55810 | 623 ft | 14 kts | 206° |
| 2026-04-23 19:13 | 48.11693 | 16.55809 | 618 ft | 10 kts | 146° |
| 2026-04-23 19:14 | 48.11657 | 16.55904 | 621 ft | 11 kts | 111° |
| 2026-04-23 19:14 | 48.11613 | 16.56035 | 613 ft | 17 kts | 116° |
| 2026-04-23 19:14 | 48.11552 | 16.56221 | 619 ft | 22 kts | 117° |
| 2026-04-23 19:14 | 48.11480 | 16.56445 | 620 ft | 25 kts | 115° |
| 2026-04-23 19:15 | 48.11401 | 16.56681 | 611 ft | 26 kts | 115° |
| 2026-04-23 19:15 | 48.11345 | 16.56857 | 614 ft | 19 kts | 115° |
| 2026-04-23 19:15 | 48.11286 | 16.57038 | 616 ft | 21 kts | 116° |
| 2026-04-23 19:15 | 48.11224 | 16.57216 | 619 ft | 10 kts | 127° |
| 2026-04-23 19:16 | 48.11167 | 16.57230 | 621 ft | 9 kts | 207° |
| 2026-04-23 19:16 | 48.11107 | 16.57175 | 613 ft | 11 kts | 210° |
| 2026-04-23 19:16 | 48.11054 | 16.57115 | 625 ft | 5 kts | 251° |
| 2026-04-23 19:17 | 48.11100 | 16.56965 | 620 ft | 23 kts | 296° |
| 2026-04-23 19:17 | 48.11273 | 16.56436 | 614 ft | 87 kts | 295° |
| 2026-04-23 19:17 | 48.11615 | 16.55385 | 617 ft | 135 kts | 295° |
| 2026-04-23 19:17 | 48.12023 | 16.54018 | 1010 ft | 140 kts | 297° |
| 2026-04-23 19:18 | 48.12405 | 16.52676 | 1554 ft | 141 kts | 299° |
| 2026-04-23 19:18 | 48.12968 | 16.51568 | 2152 ft | 131 kts | 329° |
| 2026-04-23 19:18 | 48.13836 | 16.51152 | 2639 ft | 139 kts | 356° |
| 2026-04-23 19:18 | 48.14863 | 16.51480 | 2957 ft | 162 kts | 9° |
| 2026-04-23 19:19 | 48.17297 | 16.52567 | 3625 ft | 206 kts | 11° |
| 2026-04-23 19:19 | 48.18729 | 16.53235 | 4124 ft | 221 kts | 12° |
| 2026-04-23 19:20 | 48.21863 | 16.54719 | 5370 ft | 244 kts | 13° |
| 2026-04-23 19:20 | 48.23482 | 16.55487 | 6302 ft | 244 kts | 13° |
| 2026-04-23 19:20 | 48.25125 | 16.56257 | 7046 ft | 250 kts | 13° |
| 2026-04-23 19:20 | 48.26788 | 16.57035 | 7843 ft | 253 kts | 14° |
| 2026-04-23 19:21 | 48.28485 | 16.57829 | 8604 ft | 258 kts | 14° |
| 2026-04-23 19:21 | 48.31982 | 16.59471 | 10115 ft | 268 kts | 15° |
| 2026-04-23 19:21 | 48.33820 | 16.60334 | 10484 ft | 287 kts | 15° |
| 2026-04-23 19:22 | 48.35800 | 16.61263 | 10682 ft | 308 kts | 15° |
| 2026-04-23 19:22 | 48.37848 | 16.62231 | 11521 ft | 302 kts | 15° |
| 2026-04-23 19:22 | 48.41727 | 16.64072 | 13514 ft | 292 kts | 16° |
| 2026-04-23 19:23 | 48.43679 | 16.64996 | 14172 ft | 295 kts | 16° |
| 2026-04-23 19:23 | 48.45647 | 16.65928 | 14806 ft | 298 kts | 16° |
| 2026-04-23 19:23 | 48.47624 | 16.66864 | 15437 ft | 300 kts | 17° |
| 2026-04-23 19:24 | 48.51634 | 16.68766 | 16667 ft | 305 kts | 17° |
| 2026-04-23 19:24 | 48.53667 | 16.69732 | 17291 ft | 308 kts | 17° |
| 2026-04-23 19:24 | 48.57789 | 16.71692 | 18485 ft | 313 kts | 17° |
| 2026-04-23 19:25 | 48.61997 | 16.73697 | 19597 ft | 316 kts | 18° |
| 2026-04-23 19:25 | 48.66215 | 16.75711 | 20653 ft | 319 kts | 18° |
| 2026-04-23 19:26 | 48.70439 | 16.77754 | 21673 ft | 322 kts | 21° |
| 2026-04-23 19:26 | 48.72452 | 16.79304 | 22175 ft | 324 kts | 33° |
| 2026-04-23 19:27 | 48.75630 | 16.84156 | 23135 ft | 330 kts | 50° |
| 2026-04-23 19:27 | 48.79935 | 16.92483 | 24438 ft | 335 kts | 49° |
| 2026-04-23 19:28 | 48.82810 | 16.98028 | 25209 ft | 338 kts | 49° |
| 2026-04-23 19:28 | 48.85717 | 17.03650 | 26177 ft | 333 kts | 49° |
| 2026-04-23 19:29 | 48.87128 | 17.06389 | 26777 ft | 329 kts | 49° |
| 2026-04-23 19:29 | 48.90036 | 17.12021 | 26964 ft | 347 kts | 49° |
| 2026-04-23 19:30 | 48.93098 | 17.17965 | 27088 ft | 366 kts | 49° |
| 2026-04-23 19:30 | 48.94686 | 17.21056 | 27088 ft | 377 kts | 49° |
| 2026-04-23 19:30 | 48.97982 | 17.27486 | 27091 ft | 389 kts | 49° |
| 2026-04-23 19:31 | 48.99640 | 17.30732 | 27089 ft | 388 kts | 49° |
| 2026-04-23 19:31 | 49.01299 | 17.33982 | 27091 ft | 387 kts | 49° |
| 2026-04-23 19:31 | 49.02955 | 17.37228 | 27091 ft | 388 kts | 49° |
| 2026-04-23 19:31 | 49.04613 | 17.40480 | 27086 ft | 388 kts | 49° |
| 2026-04-23 19:32 | 49.06267 | 17.43728 | 27086 ft | 388 kts | 49° |
| 2026-04-23 19:32 | 49.07912 | 17.46963 | 27088 ft | 388 kts | 49° |
| 2026-04-23 19:32 | 49.09561 | 17.50208 | 27090 ft | 388 kts | 49° |
| 2026-04-23 19:32 | 49.11235 | 17.53507 | 27086 ft | 388 kts | 49° |
| 2026-04-23 19:33 | 49.12888 | 17.56769 | 27092 ft | 388 kts | 49° |
| 2026-04-23 19:33 | 49.14518 | 17.59989 | 27092 ft | 389 kts | 49° |
| 2026-04-23 19:33 | 49.17294 | 17.65481 | 27090 ft | 389 kts | 49° |
| 2026-04-23 19:34 | 49.18947 | 17.68756 | 27088 ft | 389 kts | 49° |
| 2026-04-23 19:34 | 49.20595 | 17.72027 | 27089 ft | 389 kts | 49° |
| 2026-04-23 19:34 | 49.23905 | 17.78608 | 27090 ft | 390 kts | 49° |
| 2026-04-23 19:35 | 49.25553 | 17.81893 | 27089 ft | 389 kts | 49° |
| 2026-04-23 19:35 | 49.27204 | 17.85184 | 27089 ft | 389 kts | 49° |
| 2026-04-23 19:35 | 49.28852 | 17.88475 | 27086 ft | 390 kts | 49° |
| 2026-04-23 19:35 | 49.30507 | 17.91784 | 27086 ft | 390 kts | 49° |
| 2026-04-23 19:36 | 49.32153 | 17.95079 | 27089 ft | 389 kts | 49° |
| 2026-04-23 19:36 | 49.33804 | 17.98389 | 27087 ft | 390 kts | 49° |
| 2026-04-23 19:36 | 49.35453 | 18.01697 | 27087 ft | 390 kts | 49° |
| 2026-04-23 19:36 | 49.37075 | 18.04957 | 27088 ft | 390 kts | 49° |
| 2026-04-23 19:37 | 49.38728 | 18.08284 | 27088 ft | 391 kts | 49° |
| 2026-04-23 19:37 | 49.40375 | 18.11601 | 27092 ft | 390 kts | 48° |
| 2026-04-23 19:37 | 49.42027 | 18.14932 | 27089 ft | 390 kts | 48° |
| 2026-04-23 19:37 | 49.43673 | 18.18255 | 27092 ft | 390 kts | 48° |
| 2026-04-23 19:38 | 49.45317 | 18.21579 | 27089 ft | 391 kts | 48° |
| 2026-04-23 19:38 | 49.46946 | 18.24878 | 26951 ft | 389 kts | 48° |
| 2026-04-23 19:38 | 49.48582 | 18.28194 | 26696 ft | 386 kts | 48° |
| 2026-04-23 19:38 | 49.50194 | 18.31467 | 26458 ft | 385 kts | 48° |
| 2026-04-23 19:39 | 49.51816 | 18.34763 | 26200 ft | 385 kts | 48° |
| 2026-04-23 19:39 | 49.53433 | 18.38051 | 25953 ft | 384 kts | 48° |
| 2026-04-23 19:39 | 49.55039 | 18.41322 | 25705 ft | 383 kts | 48° |
| 2026-04-23 19:39 | 49.56644 | 18.44595 | 25465 ft | 382 kts | 48° |
| 2026-04-23 19:40 | 49.58230 | 18.47832 | 25223 ft | 381 kts | 48° |
| 2026-04-23 19:40 | 49.59820 | 18.51084 | 25069 ft | 379 kts | 48° |
| 2026-04-23 19:40 | 49.61412 | 18.54342 | 25086 ft | 380 kts | 48° |
| 2026-04-23 19:40 | 49.63005 | 18.57607 | 25086 ft | 383 kts | 48° |
| 2026-04-23 19:41 | 49.64630 | 18.60933 | 25079 ft | 394 kts | 48° |
| 2026-04-23 19:41 | 49.66271 | 18.64299 | 25073 ft | 398 kts | 49° |
| 2026-04-23 19:41 | 49.67934 | 18.67734 | 25077 ft | 398 kts | 50° |
| 2026-04-23 19:41 | 49.69443 | 18.71334 | 25072 ft | 402 kts | 55° |
| 2026-04-23 19:42 | 49.70715 | 18.75201 | 25062 ft | 406 kts | 60° |
| 2026-04-23 19:42 | 49.71836 | 18.79218 | 25005 ft | 407 kts | 61° |
| 2026-04-23 19:42 | 49.72962 | 18.83215 | 24740 ft | 403 kts | 60° |
| 2026-04-23 19:42 | 49.74081 | 18.87163 | 24237 ft | 401 kts | 60° |
| 2026-04-23 19:43 | 49.75192 | 18.91081 | 23666 ft | 398 kts | 60° |
| 2026-04-23 19:43 | 49.76302 | 18.95010 | 23288 ft | 395 kts | 60° |
| 2026-04-23 19:43 | 49.77404 | 18.98911 | 22970 ft | 395 kts | 60° |
| 2026-04-23 19:43 | 49.78502 | 19.02801 | 22455 ft | 394 kts | 60° |
| 2026-04-23 19:44 | 49.79594 | 19.06682 | 21854 ft | 391 kts | 60° |
| 2026-04-23 19:44 | 49.80680 | 19.10545 | 21159 ft | 389 kts | 61° |
| 2026-04-23 19:44 | 49.81746 | 19.14347 | 20525 ft | 387 kts | 61° |
| 2026-04-23 19:44 | 49.82820 | 19.18186 | 19872 ft | 384 kts | 61° |
| 2026-04-23 19:45 | 49.83878 | 19.21976 | 19227 ft | 382 kts | 61° |
| 2026-04-23 19:45 | 49.84929 | 19.25739 | 18596 ft | 380 kts | 61° |
| 2026-04-23 19:45 | 49.85715 | 19.28556 | 18100 ft | 378 kts | 61° |
| 2026-04-23 19:45 | 49.86766 | 19.32334 | 17459 ft | 374 kts | 61° |
| 2026-04-23 19:46 | 49.87776 | 19.35974 | 16857 ft | 370 kts | 61° |
| 2026-04-23 19:46 | 49.88786 | 19.39621 | 16203 ft | 365 kts | 62° |
| 2026-04-23 19:46 | 49.89779 | 19.43210 | 15331 ft | 360 kts | 62° |
| 2026-04-23 19:46 | 49.90764 | 19.46769 | 14485 ft | 356 kts | 62° |
| 2026-04-23 19:47 | 49.91732 | 19.50273 | 13644 ft | 352 kts | 62° |
| 2026-04-23 19:47 | 49.92637 | 19.53559 | 12813 ft | 348 kts | 62° |
| 2026-04-23 19:47 | 49.93581 | 19.56991 | 11998 ft | 343 kts | 62° |
| 2026-04-23 19:47 | 49.94510 | 19.60374 | 11203 ft | 338 kts | 62° |
| 2026-04-23 19:48 | 49.95401 | 19.63625 | 10451 ft | 334 kts | 62° |
| 2026-04-23 19:48 | 49.96291 | 19.66870 | 9648 ft | 331 kts | 62° |
| 2026-04-23 19:48 | 49.97171 | 19.70092 | 9276 ft | 314 kts | 62° |
| 2026-04-23 19:48 | 49.97959 | 19.73034 | 9073 ft | 295 kts | 64° |
| 2026-04-23 19:49 | 49.98515 | 19.76016 | 8912 ft | 281 kts | 73° |
| 2026-04-23 19:49 | 49.98885 | 19.78914 | 8754 ft | 264 kts | 72° |
| 2026-04-23 19:49 | 49.99245 | 19.81615 | 8576 ft | 247 kts | 72° |
| 2026-04-23 19:49 | 49.99598 | 19.84189 | 8471 ft | 246 kts | 71° |
| 2026-04-23 19:50 | 49.99962 | 19.86803 | 8341 ft | 247 kts | 71° |
| 2026-04-23 19:50 | 50.00309 | 19.89322 | 8047 ft | 248 kts | 72° |
| 2026-04-23 19:50 | 50.00663 | 19.91922 | 7768 ft | 243 kts | 72° |
| 2026-04-23 19:50 | 50.01002 | 19.94438 | 7449 ft | 239 kts | 72° |
| 2026-04-23 19:51 | 50.01346 | 19.96987 | 7115 ft | 235 kts | 72° |
| 2026-04-23 19:51 | 50.01667 | 19.99385 | 6971 ft | 224 kts | 72° |
| 2026-04-23 19:51 | 50.01978 | 20.01727 | 6801 ft | 212 kts | 71° |
| 2026-04-23 19:51 | 50.02278 | 20.03942 | 6405 ft | 211 kts | 71° |
| 2026-04-23 19:52 | 50.02577 | 20.06137 | 6218 ft | 198 kts | 71° |
| 2026-04-23 19:52 | 50.02853 | 20.08186 | 5791 ft | 195 kts | 71° |
| 2026-04-23 19:52 | 50.03335 | 20.10085 | 5325 ft | 184 kts | 44° |
| 2026-04-23 19:52 | 50.04333 | 20.11175 | 4853 ft | 173 kts | 12° |
| 2026-04-23 19:53 | 50.05479 | 20.11230 | 4568 ft | 159 kts | 345° |
| 2026-04-23 19:53 | 50.06538 | 20.10856 | 4226 ft | 155 kts | 346° |
| 2026-04-23 19:53 | 50.07570 | 20.10525 | 4017 ft | 154 kts | 347° |
| 2026-04-23 19:53 | 50.08645 | 20.10187 | 3979 ft | 157 kts | 347° |
| 2026-04-23 19:54 | 50.09714 | 20.09848 | 3985 ft | 157 kts | 347° |
| 2026-04-23 19:54 | 50.10739 | 20.09316 | 3984 ft | 157 kts | 327° |
| 2026-04-23 19:54 | 50.11406 | 20.07972 | 3989 ft | 164 kts | 294° |
| 2026-04-23 19:54 | 50.11540 | 20.06179 | 3989 ft | 172 kts | 272° |
| 2026-04-23 19:55 | 50.11367 | 20.04321 | 3959 ft | 175 kts | 266° |
| 2026-04-23 19:55 | 50.11101 | 20.02476 | 3743 ft | 173 kts | 265° |
| 2026-04-23 19:55 | 50.10847 | 20.00636 | 3512 ft | 175 kts | 265° |
| 2026-04-23 19:55 | 50.10609 | 19.98931 | 3289 ft | 162 kts | 265° |
| 2026-04-23 19:56 | 50.10380 | 19.97288 | 3064 ft | 149 kts | 266° |
| 2026-04-23 19:56 | 50.10173 | 19.95770 | 2890 ft | 144 kts | 266° |
| 2026-04-23 19:56 | 50.09962 | 19.94276 | 2686 ft | 131 kts | 267° |
| 2026-04-23 19:56 | 50.09773 | 19.92883 | 2510 ft | 134 kts | 267° |
| 2026-04-23 19:57 | 50.09577 | 19.91472 | 2329 ft | 132 kts | 266° |
| 2026-04-23 19:57 | 50.09384 | 19.90077 | 2149 ft | 132 kts | 265° |
| 2026-04-23 19:57 | 50.09191 | 19.88684 | 1965 ft | 131 kts | 264° |
| 2026-04-23 19:57 | 50.08999 | 19.87285 | 1777 ft | 131 kts | 263° |
| 2026-04-23 19:58 | 50.08811 | 19.85936 | 1603 ft | 129 kts | 262° |
| 2026-04-23 19:58 | 50.08621 | 19.84562 | 1419 ft | 126 kts | 261° |
| 2026-04-23 19:58 | 50.08438 | 19.83234 | 1254 ft | 129 kts | 259° |
| 2026-04-23 19:58 | 50.08248 | 19.81895 | 1056 ft | 123 kts | 259° |
| 2026-04-23 19:59 | 50.08060 | 19.80572 | 910 ft | 127 kts | 260° |
| 2026-04-23 19:59 | 50.07876 | 19.79231 | 798 ft | 123 kts | 259° |
| 2026-04-23 19:59 | 50.07724 | 19.78118 | 789 ft | 87 kts | 258° |
| 2026-04-23 19:59 | 50.07629 | 19.77446 | 791 ft | 44 kts | 259° |
| 2026-04-23 20:00 | 50.07574 | 19.77070 | 796 ft | 17 kts | 249° |
| 2026-04-23 20:00 | 50.07565 | 19.77026 | 796 ft | 6 kts | 260° |
| 2026-04-23 20:00 | 50.07554 | 19.76908 | 797 ft | 14 kts | 251° |
| 2026-04-23 20:00 | 50.07488 | 19.76849 | 796 ft | 11 kts | 169° |
| 2026-04-23 20:01 | 50.07393 | 19.76877 | 791 ft | 17 kts | 169° |
| 2026-04-23 20:01 | 50.07308 | 19.76927 | 790 ft | 8 kts | 127° |
| 2026-04-23 20:01 | 50.07309 | 19.76980 | 790 ft | 5 kts | 73° |
| 2026-04-23 20:01 | 50.07322 | 19.77050 | 790 ft | 8 kts | 76° |
| 2026-04-23 20:02 | 50.07338 | 19.77164 | 790 ft | 14 kts | 79° |
| 2026-04-23 20:02 | 50.07361 | 19.77339 | 790 ft | 18 kts | 77° |
| 2026-04-23 20:02 | 50.07390 | 19.77549 | 790 ft | 21 kts | 78° |
| 2026-04-23 20:02 | 50.07422 | 19.77779 | 790 ft | 23 kts | 77° |
| 2026-04-23 20:03 | 50.07456 | 19.78020 | 790 ft | 23 kts | 78° |
| 2026-04-23 20:03 | 50.07491 | 19.78269 | 790 ft | 24 kts | 77° |
| 2026-04-23 20:03 | 50.07527 | 19.78535 | 790 ft | 26 kts | 77° |
| 2026-04-23 20:03 | 50.07563 | 19.78791 | 790 ft | 21 kts | 78° |
| 2026-04-23 20:04 | 50.07587 | 19.78957 | 790 ft | 12 kts | 77° |
| 2026-04-23 20:04 | 50.07605 | 19.79087 | 790 ft | 14 kts | 78° |
| 2026-04-23 20:04 | 50.07629 | 19.79262 | 790 ft | 18 kts | 77° |
| 2026-04-23 20:04 | 50.07655 | 19.79449 | 790 ft | 17 kts | 78° |
| 2026-04-23 20:05 | 50.07669 | 19.79558 | 790 ft | 16 kts | 77° |
| 2026-04-23 20:05 | 50.07697 | 19.79759 | 790 ft | 12 kts | 77° |
| 2026-04-23 20:05 | 50.07696 | 19.79861 | 790 ft | 8 kts | 131° |
| 2026-04-23 20:05 | 50.07650 | 19.79886 | 790 ft | 7 kts | 166° |
| 2026-04-23 20:06 | 50.07598 | 19.79904 | 790 ft | 9 kts | 167° |
| 2026-04-23 20:06 | 50.07532 | 19.79929 | 790 ft | 9 kts | 159° |
| 2026-04-23 20:06 | 50.07511 | 19.79950 | 790 ft | 1 kts | 129° |
| 2026-04-23 20:06 | 50.07508 | 19.79957 | 790 ft | 0 kts | 127° |
| 2026-04-23 20:07 | 50.07506 | 19.79965 | 790 ft | 0 kts | 112° |
| 2026-04-23 20:07 | 50.07505 | 19.79972 | 790 ft | 0 kts | 96° |
| 2026-04-23 20:07 | 50.07506 | 19.79979 | 790 ft | 0 kts | 86° |
| 2026-04-23 20:07 | 50.07509 | 19.79996 | 790 ft | 5 kts | 76° |
| 2026-04-23 20:08 | 50.07511 | 19.80016 | 790 ft | 2 kts | 75° |
| 2026-04-23 20:08 | 50.07518 | 19.80047 | 790 ft | 6 kts | 71° |
| 2026-04-23 20:08 | 50.07528 | 19.80123 | 790 ft | 5 kts | 77° |
| 2026-04-23 20:08 | 50.07540 | 19.80190 | 790 ft | 8 kts | 76° |
| 2026-04-23 20:09 | 50.07543 | 19.80258 | 790 ft | 3 kts | 115° |
| 2026-04-23 20:09 | 50.07528 | 19.80264 | 790 ft | 2 kts | 169° |
| 2026-04-23 20:09 | 50.07513 | 19.80270 | 790 ft | 3 kts | 167° |
| 2026-04-23 20:09 | 50.07498 | 19.80275 | 790 ft | 0 kts | 167° |